sensor_id;sensor_type;location;lat;lon;timestamp;temperature;humidity
22469;DHT22;11401;50.792;4.352;2022-09-09T00:02:14;22.60;60.30
22469;DHT22;11401;50.792;4.352;2022-09-09T00:04:53;22.60;60.20
22469;DHT22;11401;50.792;4.352;2022-09-09T00:21:18;22.60;60.20
22469;DHT22;11401;50.792;4.352;2022-09-09T00:23:55;22.60;60.40
22469;DHT22;11401;50.792;4.352;2022-09-09T00:26:45;22.70;60.40
22469;DHT22;11401;50.792;4.352;2022-09-09T00:31:44;22.50;60.60
22469;DHT22;11401;50.792;4.352;2022-09-09T00:34:12;22.60;60.70
22469;DHT22;11401;50.792;4.352;2022-09-09T00:36:41;22.60;60.70
22469;DHT22;11401;50.792;4.352;2022-09-09T00:39:32;22.60;60.40
22469;DHT22;11401;50.792;4.352;2022-09-09T00:47:58;22.60;60.30
22469;DHT22;11401;50.792;4.352;2022-09-09T00:53:12;22.60;60.50
22469;DHT22;11401;50.792;4.352;2022-09-09T00:55:54;22.60;60.40
22469;DHT22;11401;50.792;4.352;2022-09-09T00:58:23;22.60;60.40
22469;DHT22;11401;50.792;4.352;2022-09-09T01:01:09;22.60;60.50
22469;DHT22;11401;50.792;4.352;2022-09-09T01:03:53;22.70;61.20
22469;DHT22;11401;50.792;4.352;2022-09-09T01:06:28;22.70;60.50
22469;DHT22;11401;50.792;4.352;2022-09-09T01:12:16;22.70;60.60
22469;DHT22;11401;50.792;4.352;2022-09-09T01:14:51;22.60;60.00
22469;DHT22;11401;50.792;4.352;2022-09-09T01:17:24;22.60;60.50
22469;DHT22;11401;50.792;4.352;2022-09-09T01:20:14;22.60;60.70
22469;DHT22;11401;50.792;4.352;2022-09-09T01:28:26;22.60;60.70
22469;DHT22;11401;50.792;4.352;2022-09-09T01:31:03;22.70;60.70
22469;DHT22;11401;50.792;4.352;2022-09-09T01:33:38;22.60;60.60
22469;DHT22;11401;50.792;4.352;2022-09-09T01:36:10;22.60;60.80
22469;DHT22;11401;50.792;4.352;2022-09-09T01:38:47;22.60;60.80
22469;DHT22;11401;50.792;4.352;2022-09-09T01:41:15;22.60;60.80
22469;DHT22;11401;50.792;4.352;2022-09-09T01:44:00;22.60;60.80
22469;DHT22;11401;50.792;4.352;2022-09-09T01:46:29;22.60;60.80
22469;DHT22;11401;50.792;4.352;2022-09-09T01:48:57;22.60;60.90
22469;DHT22;11401;50.792;4.352;2022-09-09T01:51:26;22.60;60.90
22469;DHT22;11401;50.792;4.352;2022-09-09T01:53:54;22.60;60.70
22469;DHT22;11401;50.792;4.352;2022-09-09T01:56:43;22.60;60.80
22469;DHT22;11401;50.792;4.352;2022-09-09T02:02:19;22.70;60.60
22469;DHT22;11401;50.792;4.352;2022-09-09T02:05:24;22.60;60.30
22469;DHT22;11401;50.792;4.352;2022-09-09T02:08:17;22.60;60.60
22469;DHT22;11401;50.792;4.352;2022-09-09T02:11:06;22.60;60.50
22469;DHT22;11401;50.792;4.352;2022-09-09T02:13:44;22.70;60.40
22469;DHT22;11401;50.792;4.352;2022-09-09T02:21:32;22.60;60.40
22469;DHT22;11401;50.792;4.352;2022-09-09T02:24:04;22.70;60.80
22469;DHT22;11401;50.792;4.352;2022-09-09T02:26:40;22.70;60.70
22469;DHT22;11401;50.792;4.352;2022-09-09T02:29:16;22.60;61.60
22469;DHT22;11401;50.792;4.352;2022-09-09T02:31:47;22.70;60.90
22469;DHT22;11401;50.792;4.352;2022-09-09T02:34:22;22.70;60.70
22469;DHT22;11401;50.792;4.352;2022-09-09T02:36:51;22.60;60.60
22469;DHT22;11401;50.792;4.352;2022-09-09T02:39:19;22.70;61.00
22469;DHT22;11401;50.792;4.352;2022-09-09T02:41:49;22.60;60.60
22469;DHT22;11401;50.792;4.352;2022-09-09T02:44:17;22.60;60.60
22469;DHT22;11401;50.792;4.352;2022-09-09T02:52:27;22.60;60.50
22469;DHT22;11401;50.792;4.352;2022-09-09T02:55:02;22.70;60.70
22469;DHT22;11401;50.792;4.352;2022-09-09T02:57:31;22.60;60.80
22469;DHT22;11401;50.792;4.352;2022-09-09T03:00:00;22.60;61.00
22469;DHT22;11401;50.792;4.352;2022-09-09T03:02:30;22.70;60.90
22469;DHT22;11401;50.792;4.352;2022-09-09T03:05:04;22.70;60.60
22469;DHT22;11401;50.792;4.352;2022-09-09T03:07:31;22.60;60.60
22469;DHT22;11401;50.792;4.352;2022-09-09T03:09:59;22.70;60.70
22469;DHT22;11401;50.792;4.352;2022-09-09T03:12:27;22.60;60.60
22469;DHT22;11401;50.792;4.352;2022-09-09T03:14:54;22.60;60.40
22469;DHT22;11401;50.792;4.352;2022-09-09T03:17:21;22.60;60.60
22469;DHT22;11401;50.792;4.352;2022-09-09T03:19:52;22.60;60.70
22469;DHT22;11401;50.792;4.352;2022-09-09T03:22:21;22.60;60.40
22469;DHT22;11401;50.792;4.352;2022-09-09T03:24:48;22.60;60.70
22469;DHT22;11401;50.792;4.352;2022-09-09T03:27:16;22.50;60.50
22469;DHT22;11401;50.792;4.352;2022-09-09T03:29:44;22.50;60.90
22469;DHT22;11401;50.792;4.352;2022-09-09T03:32:15;22.50;61.00
22469;DHT22;11401;50.792;4.352;2022-09-09T03:34:44;22.50;60.80
22469;DHT22;11401;50.792;4.352;2022-09-09T03:37:13;22.50;60.80
22469;DHT22;11401;50.792;4.352;2022-09-09T03:39:39;22.50;60.70
22469;DHT22;11401;50.792;4.352;2022-09-09T03:42:08;22.50;60.50
22469;DHT22;11401;50.792;4.352;2022-09-09T03:44:35;22.40;60.70
22469;DHT22;11401;50.792;4.352;2022-09-09T03:47:02;22.40;61.00
22469;DHT22;11401;50.792;4.352;2022-09-09T03:49:29;22.40;61.20
22469;DHT22;11401;50.792;4.352;2022-09-09T03:51:56;22.30;61.10
22469;DHT22;11401;50.792;4.352;2022-09-09T03:54:24;22.40;61.00
22469;DHT22;11401;50.792;4.352;2022-09-09T03:56:52;22.30;61.00
22469;DHT22;11401;50.792;4.352;2022-09-09T03:59:20;22.40;61.00
22469;DHT22;11401;50.792;4.352;2022-09-09T04:01:48;22.40;61.00
22469;DHT22;11401;50.792;4.352;2022-09-09T04:04:15;22.50;61.30
22469;DHT22;11401;50.792;4.352;2022-09-09T04:06:42;22.40;60.60
22469;DHT22;11401;50.792;4.352;2022-09-09T04:09:09;22.50;61.10
22469;DHT22;11401;50.792;4.352;2022-09-09T04:11:36;22.60;60.80
22469;DHT22;11401;50.792;4.352;2022-09-09T04:14:03;22.60;60.70
22469;DHT22;11401;50.792;4.352;2022-09-09T04:16:33;22.60;60.60
22469;DHT22;11401;50.792;4.352;2022-09-09T04:19:02;22.60;60.80
22469;DHT22;11401;50.792;4.352;2022-09-09T04:21:31;22.60;60.40
22469;DHT22;11401;50.792;4.352;2022-09-09T04:23:59;22.60;60.30
22469;DHT22;11401;50.792;4.352;2022-09-09T04:26:26;22.60;60.60
22469;DHT22;11401;50.792;4.352;2022-09-09T04:28:53;22.60;60.50
22469;DHT22;11401;50.792;4.352;2022-09-09T04:31:22;22.60;60.50
22469;DHT22;11401;50.792;4.352;2022-09-09T04:33:53;22.70;60.00
22469;DHT22;11401;50.792;4.352;2022-09-09T04:36:21;22.70;60.50
22469;DHT22;11401;50.792;4.352;2022-09-09T04:38:50;22.70;60.60
22469;DHT22;11401;50.792;4.352;2022-09-09T04:41:17;22.70;60.70
22469;DHT22;11401;50.792;4.352;2022-09-09T04:43:49;22.70;60.10
22469;DHT22;11401;50.792;4.352;2022-09-09T04:46:16;22.70;60.20
22469;DHT22;11401;50.792;4.352;2022-09-09T04:48:48;22.70;60.30
22469;DHT22;11401;50.792;4.352;2022-09-09T04:51:17;22.60;60.20
22469;DHT22;11401;50.792;4.352;2022-09-09T04:53:46;22.70;60.40
22469;DHT22;11401;50.792;4.352;2022-09-09T04:56:17;22.70;60.20
22469;DHT22;11401;50.792;4.352;2022-09-09T04:58:49;22.60;60.20
22469;DHT22;11401;50.792;4.352;2022-09-09T05:01:20;22.60;60.00
22469;DHT22;11401;50.792;4.352;2022-09-09T05:03:55;22.60;60.50
22469;DHT22;11401;50.792;4.352;2022-09-09T05:06:23;22.60;60.40
22469;DHT22;11401;50.792;4.352;2022-09-09T05:08:55;22.40;60.40
22469;DHT22;11401;50.792;4.352;2022-09-09T05:11:27;22.40;60.40
22469;DHT22;11401;50.792;4.352;2022-09-09T05:14:00;22.30;60.60
22469;DHT22;11401;50.792;4.352;2022-09-09T05:16:29;22.30;60.80
22469;DHT22;11401;50.792;4.352;2022-09-09T05:18:57;22.30;60.60
22469;DHT22;11401;50.792;4.352;2022-09-09T05:21:31;22.20;60.50
22469;DHT22;11401;50.792;4.352;2022-09-09T05:23:58;22.30;61.00
22469;DHT22;11401;50.792;4.352;2022-09-09T05:26:27;22.30;61.40
22469;DHT22;11401;50.792;4.352;2022-09-09T05:28:56;22.60;61.90
22469;DHT22;11401;50.792;4.352;2022-09-09T05:31:25;22.50;59.90
22469;DHT22;11401;50.792;4.352;2022-09-09T05:33:55;22.40;60.20
22469;DHT22;11401;50.792;4.352;2022-09-09T05:36:22;22.40;60.40
22469;DHT22;11401;50.792;4.352;2022-09-09T05:38:54;22.40;60.70
22469;DHT22;11401;50.792;4.352;2022-09-09T05:41:21;22.30;60.70
22469;DHT22;11401;50.792;4.352;2022-09-09T05:43:53;22.20;60.50
22469;DHT22;11401;50.792;4.352;2022-09-09T05:46:23;22.20;60.50
22469;DHT22;11401;50.792;4.352;2022-09-09T05:48:53;22.20;60.50
22469;DHT22;11401;50.792;4.352;2022-09-09T05:51:27;22.20;60.90
22469;DHT22;11401;50.792;4.352;2022-09-09T05:53:58;22.20;61.80
22469;DHT22;11401;50.792;4.352;2022-09-09T05:56:28;22.20;60.90
22469;DHT22;11401;50.792;4.352;2022-09-09T05:58:58;22.20;60.50
22469;DHT22;11401;50.792;4.352;2022-09-09T06:01:28;22.20;61.10
22469;DHT22;11401;50.792;4.352;2022-09-09T06:03:56;22.30;61.10
22469;DHT22;11401;50.792;4.352;2022-09-09T06:06:26;22.20;60.70
22469;DHT22;11401;50.792;4.352;2022-09-09T06:08:56;22.20;60.90
22469;DHT22;11401;50.792;4.352;2022-09-09T06:11:30;22.10;60.30
22469;DHT22;11401;50.792;4.352;2022-09-09T06:13:59;22.10;61.50
22469;DHT22;11401;50.792;4.352;2022-09-09T06:16:29;22.20;60.90
22469;DHT22;11401;50.792;4.352;2022-09-09T06:18:57;22.20;60.80
22469;DHT22;11401;50.792;4.352;2022-09-09T06:21:36;22.20;60.50
22469;DHT22;11401;50.792;4.352;2022-09-09T06:24:06;22.20;60.70
22469;DHT22;11401;50.792;4.352;2022-09-09T06:26:37;22.40;60.90
22469;DHT22;11401;50.792;4.352;2022-09-09T06:29:05;22.50;61.10
22469;DHT22;11401;50.792;4.352;2022-09-09T06:31:34;22.60;60.20
22469;DHT22;11401;50.792;4.352;2022-09-09T06:34:09;22.70;60.80
22469;DHT22;11401;50.792;4.352;2022-09-09T06:36:39;22.70;60.20
22469;DHT22;11401;50.792;4.352;2022-09-09T06:39:07;22.80;60.30
22469;DHT22;11401;50.792;4.352;2022-09-09T06:41:41;22.80;59.50
22469;DHT22;11401;50.792;4.352;2022-09-09T06:44:27;22.90;60.40
22469;DHT22;11401;50.792;4.352;2022-09-09T06:47:01;22.90;60.70
22469;DHT22;11401;50.792;4.352;2022-09-09T06:49:28;23.00;61.90
22469;DHT22;11401;50.792;4.352;2022-09-09T06:51:56;23.00;60.10
22469;DHT22;11401;50.792;4.352;2022-09-09T06:54:24;23.00;59.40
22469;DHT22;11401;50.792;4.352;2022-09-09T06:56:52;23.10;59.70
22469;DHT22;11401;50.792;4.352;2022-09-09T06:59:22;23.10;59.50
22469;DHT22;11401;50.792;4.352;2022-09-09T07:01:52;23.10;59.50
22469;DHT22;11401;50.792;4.352;2022-09-09T07:04:22;23.20;60.20
22469;DHT22;11401;50.792;4.352;2022-09-09T07:06:49;23.10;59.10
22469;DHT22;11401;50.792;4.352;2022-09-09T07:09:22;23.10;59.10
22469;DHT22;11401;50.792;4.352;2022-09-09T07:11:52;23.10;58.80
22469;DHT22;11401;50.792;4.352;2022-09-09T07:14:21;23.10;59.30
22469;DHT22;11401;50.792;4.352;2022-09-09T07:16:59;23.10;59.20
22469;DHT22;11401;50.792;4.352;2022-09-09T07:19:31;23.10;59.70
22469;DHT22;11401;50.792;4.352;2022-09-09T07:21:59;23.10;59.50
22469;DHT22;11401;50.792;4.352;2022-09-09T07:24:26;23.20;60.10
22469;DHT22;11401;50.792;4.352;2022-09-09T07:26:57;23.20;60.50
22469;DHT22;11401;50.792;4.352;2022-09-09T07:29:25;23.10;58.90
22469;DHT22;11401;50.792;4.352;2022-09-09T07:31:53;23.10;59.30
22469;DHT22;11401;50.792;4.352;2022-09-09T07:34:25;23.10;60.10
22469;DHT22;11401;50.792;4.352;2022-09-09T07:36:52;23.10;59.00
22469;DHT22;11401;50.792;4.352;2022-09-09T07:39:19;23.20;59.80
22469;DHT22;11401;50.792;4.352;2022-09-09T07:41:50;23.10;59.00
22469;DHT22;11401;50.792;4.352;2022-09-09T07:44:22;23.10;59.70
22469;DHT22;11401;50.792;4.352;2022-09-09T07:46:56;23.10;59.30
22469;DHT22;11401;50.792;4.352;2022-09-09T07:49:28;23.10;59.80
22469;DHT22;11401;50.792;4.352;2022-09-09T07:52:00;23.10;59.50
22469;DHT22;11401;50.792;4.352;2022-09-09T07:54:28;23.10;60.10
22469;DHT22;11401;50.792;4.352;2022-09-09T07:56:54;23.10;59.80
22469;DHT22;11401;50.792;4.352;2022-09-09T07:59:25;23.10;61.70
22469;DHT22;11401;50.792;4.352;2022-09-09T08:01:53;23.10;60.20
22469;DHT22;11401;50.792;4.352;2022-09-09T08:04:25;23.00;59.70
22469;DHT22;11401;50.792;4.352;2022-09-09T08:06:59;23.10;60.60
22469;DHT22;11401;50.792;4.352;2022-09-09T08:09:28;23.10;60.90
22469;DHT22;11401;50.792;4.352;2022-09-09T08:12:16;23.20;61.40
22469;DHT22;11401;50.792;4.352;2022-09-09T08:14:43;23.10;60.00
22469;DHT22;11401;50.792;4.352;2022-09-09T08:17:10;23.20;60.60
22469;DHT22;11401;50.792;4.352;2022-09-09T08:19:37;23.20;60.90
22469;DHT22;11401;50.792;4.352;2022-09-09T08:22:10;23.30;60.70
22469;DHT22;11401;50.792;4.352;2022-09-09T08:24:38;23.30;60.90
22469;DHT22;11401;50.792;4.352;2022-09-09T08:27:07;23.30;60.50
22469;DHT22;11401;50.792;4.352;2022-09-09T08:29:34;23.30;61.00
22469;DHT22;11401;50.792;4.352;2022-09-09T08:32:01;23.40;60.40
22469;DHT22;11401;50.792;4.352;2022-09-09T08:34:28;23.30;59.80
22469;DHT22;11401;50.792;4.352;2022-09-09T08:36:59;23.30;60.20
22469;DHT22;11401;50.792;4.352;2022-09-09T08:39:35;23.30;60.20
22469;DHT22;11401;50.792;4.352;2022-09-09T08:42:16;23.30;60.60
22469;DHT22;11401;50.792;4.352;2022-09-09T08:44:57;23.50;60.30
22469;DHT22;11401;50.792;4.352;2022-09-09T08:50:30;23.50;60.40
22469;DHT22;11401;50.792;4.352;2022-09-09T08:55:48;23.40;60.20
22469;DHT22;11401;50.792;4.352;2022-09-09T09:11:44;23.40;60.30
22469;DHT22;11401;50.792;4.352;2022-09-09T09:14:24;23.40;60.40
22469;DHT22;11401;50.792;4.352;2022-09-09T09:17:00;23.50;60.30
22469;DHT22;11401;50.792;4.352;2022-09-09T09:19:29;23.40;60.00
22469;DHT22;11401;50.792;4.352;2022-09-09T09:28:03;23.30;59.80
22469;DHT22;11401;50.792;4.352;2022-09-09T09:30:42;23.40;60.70
22469;DHT22;11401;50.792;4.352;2022-09-09T09:35:58;23.30;59.50
22469;DHT22;11401;50.792;4.352;2022-09-09T09:38:28;23.20;60.40
22469;DHT22;11401;50.792;4.352;2022-09-09T09:41:15;23.20;60.50
22469;DHT22;11401;50.792;4.352;2022-09-09T09:43:53;23.30;61.00
22469;DHT22;11401;50.792;4.352;2022-09-09T09:46:24;23.30;60.40
22469;DHT22;11401;50.792;4.352;2022-09-09T09:49:05;23.30;60.70
22469;DHT22;11401;50.792;4.352;2022-09-09T09:51:37;23.30;60.70
22469;DHT22;11401;50.792;4.352;2022-09-09T09:54:33;23.30;60.90
22469;DHT22;11401;50.792;4.352;2022-09-09T09:57:14;23.20;59.70
22469;DHT22;11401;50.792;4.352;2022-09-09T09:59:45;23.10;60.90
22469;DHT22;11401;50.792;4.352;2022-09-09T10:02:24;23.10;61.40
22469;DHT22;11401;50.792;4.352;2022-09-09T10:05:06;23.10;61.00
22469;DHT22;11401;50.792;4.352;2022-09-09T10:07:35;23.20;61.30
22469;DHT22;11401;50.792;4.352;2022-09-09T10:10:05;23.20;60.70
22469;DHT22;11401;50.792;4.352;2022-09-09T10:15:41;23.10;60.50
22469;DHT22;11401;50.792;4.352;2022-09-09T10:24:54;23.10;60.70
22469;DHT22;11401;50.792;4.352;2022-09-09T10:33:09;23.10;60.90
22469;DHT22;11401;50.792;4.352;2022-09-09T10:35:55;23.20;61.10
22469;DHT22;11401;50.792;4.352;2022-09-09T10:38:45;23.30;61.20
22469;DHT22;11401;50.792;4.352;2022-09-09T10:41:23;23.30;60.90
22469;DHT22;11401;50.792;4.352;2022-09-09T10:44:02;23.30;60.90
22469;DHT22;11401;50.792;4.352;2022-09-09T10:57:29;23.40;61.10
22469;DHT22;11401;50.792;4.352;2022-09-09T11:00:31;23.40;61.30
22469;DHT22;11401;50.792;4.352;2022-09-09T11:03:03;23.40;61.00
22469;DHT22;11401;50.792;4.352;2022-09-09T11:05:43;23.40;61.40
22469;DHT22;11401;50.792;4.352;2022-09-09T11:08:25;23.50;61.70
22469;DHT22;11401;50.792;4.352;2022-09-09T11:11:03;23.50;61.10
22469;DHT22;11401;50.792;4.352;2022-09-09T11:13:44;23.40;60.80
22469;DHT22;11401;50.792;4.352;2022-09-09T11:18:48;23.40;61.30
22469;DHT22;11401;50.792;4.352;2022-09-09T11:21:23;23.40;61.40
22469;DHT22;11401;50.792;4.352;2022-09-09T11:23:57;23.50;61.20
22469;DHT22;11401;50.792;4.352;2022-09-09T11:26:39;23.50;60.80
22469;DHT22;11401;50.792;4.352;2022-09-09T11:32:10;23.50;60.40
22469;DHT22;11401;50.792;4.352;2022-09-09T11:35:25;23.50;61.10
22469;DHT22;11401;50.792;4.352;2022-09-09T11:37:58;23.50;60.00
22469;DHT22;11401;50.792;4.352;2022-09-09T11:40:31;23.50;61.00
22469;DHT22;11401;50.792;4.352;2022-09-09T11:43:08;23.50;61.00
22469;DHT22;11401;50.792;4.352;2022-09-09T11:45:36;23.60;61.10
22469;DHT22;11401;50.792;4.352;2022-09-09T11:48:04;23.60;60.70
22469;DHT22;11401;50.792;4.352;2022-09-09T11:50:36;23.60;61.10
22469;DHT22;11401;50.792;4.352;2022-09-09T11:55:40;23.60;60.40
22469;DHT22;11401;50.792;4.352;2022-09-09T12:00:45;23.60;60.10
22469;DHT22;11401;50.792;4.352;2022-09-09T12:08:51;23.50;60.00
22469;DHT22;11401;50.792;4.352;2022-09-09T12:11:29;23.50;60.00
22469;DHT22;11401;50.792;4.352;2022-09-09T12:13:58;23.50;60.10
22469;DHT22;11401;50.792;4.352;2022-09-09T12:16:31;23.50;60.70
22469;DHT22;11401;50.792;4.352;2022-09-09T12:19:15;23.60;60.90
22469;DHT22;11401;50.792;4.352;2022-09-09T12:22:04;23.60;60.80
22469;DHT22;11401;50.792;4.352;2022-09-09T12:24:40;23.60;60.10
22469;DHT22;11401;50.792;4.352;2022-09-09T12:32:20;23.50;60.00
22469;DHT22;11401;50.792;4.352;2022-09-09T12:34:55;23.50;60.40
22469;DHT22;11401;50.792;4.352;2022-09-09T12:40:17;23.60;60.80
22469;DHT22;11401;50.792;4.352;2022-09-09T12:42:45;23.60;61.00
22469;DHT22;11401;50.792;4.352;2022-09-09T12:45:23;23.60;60.60
22469;DHT22;11401;50.792;4.352;2022-09-09T12:48:01;23.50;61.00
22469;DHT22;11401;50.792;4.352;2022-09-09T12:50:36;23.50;60.50
22469;DHT22;11401;50.792;4.352;2022-09-09T12:53:08;23.60;60.40
22469;DHT22;11401;50.792;4.352;2022-09-09T12:55:38;23.60;60.90
22469;DHT22;11401;50.792;4.352;2022-09-09T12:58:06;23.60;60.70
22469;DHT22;11401;50.792;4.352;2022-09-09T13:00:34;23.70;60.50
22469;DHT22;11401;50.792;4.352;2022-09-09T13:03:14;23.70;60.00
22469;DHT22;11401;50.792;4.352;2022-09-09T13:05:42;23.70;60.50
22469;DHT22;11401;50.792;4.352;2022-09-09T13:08:11;23.60;60.30
22469;DHT22;11401;50.792;4.352;2022-09-09T13:10:51;23.70;60.30
22469;DHT22;11401;50.792;4.352;2022-09-09T13:13:39;23.70;60.20
22469;DHT22;11401;50.792;4.352;2022-09-09T13:16:28;23.70;60.80
22469;DHT22;11401;50.792;4.352;2022-09-09T13:19:13;23.70;60.60
22469;DHT22;11401;50.792;4.352;2022-09-09T13:21:41;23.70;60.80
22469;DHT22;11401;50.792;4.352;2022-09-09T13:24:33;23.70;60.40
22469;DHT22;11401;50.792;4.352;2022-09-09T13:27:01;23.80;60.00
22469;DHT22;11401;50.792;4.352;2022-09-09T13:29:30;23.70;60.00
22469;DHT22;11401;50.792;4.352;2022-09-09T13:32:16;23.80;60.50
22469;DHT22;11401;50.792;4.352;2022-09-09T13:35:00;23.70;59.50
22469;DHT22;11401;50.792;4.352;2022-09-09T13:37:37;23.80;59.80
22469;DHT22;11401;50.792;4.352;2022-09-09T13:40:06;23.80;60.10
22469;DHT22;11401;50.792;4.352;2022-09-09T13:42:37;23.70;59.80
22469;DHT22;11401;50.792;4.352;2022-09-09T13:45:14;23.70;60.00
22469;DHT22;11401;50.792;4.352;2022-09-09T13:47:43;23.70;60.00
22469;DHT22;11401;50.792;4.352;2022-09-09T13:52:48;23.80;60.20
22469;DHT22;11401;50.792;4.352;2022-09-09T13:55:18;23.80;60.30
22469;DHT22;11401;50.792;4.352;2022-09-09T13:57:57;23.80;60.10
22469;DHT22;11401;50.792;4.352;2022-09-09T14:00:24;23.90;59.90
22469;DHT22;11401;50.792;4.352;2022-09-09T14:02:52;23.90;59.80
22469;DHT22;11401;50.792;4.352;2022-09-09T14:05:21;23.90;60.10
22469;DHT22;11401;50.792;4.352;2022-09-09T14:07:49;23.80;59.80
22469;DHT22;11401;50.792;4.352;2022-09-09T14:10:19;23.80;60.30
22469;DHT22;11401;50.792;4.352;2022-09-09T14:12:46;23.90;60.70
22469;DHT22;11401;50.792;4.352;2022-09-09T14:15:13;23.80;59.70
22469;DHT22;11401;50.792;4.352;2022-09-09T14:17:41;23.90;60.30
22469;DHT22;11401;50.792;4.352;2022-09-09T14:20:09;23.90;60.50
22469;DHT22;11401;50.792;4.352;2022-09-09T14:22:38;23.90;60.10
22469;DHT22;11401;50.792;4.352;2022-09-09T14:25:06;24.00;60.30
22469;DHT22;11401;50.792;4.352;2022-09-09T14:27:33;24.00;60.10
22469;DHT22;11401;50.792;4.352;2022-09-09T14:30:00;24.00;60.10
22469;DHT22;11401;50.792;4.352;2022-09-09T14:32:28;24.00;59.90
22469;DHT22;11401;50.792;4.352;2022-09-09T14:34:55;24.00;59.90
22469;DHT22;11401;50.792;4.352;2022-09-09T14:37:23;24.00;59.80
22469;DHT22;11401;50.792;4.352;2022-09-09T14:39:50;24.00;60.00
22469;DHT22;11401;50.792;4.352;2022-09-09T14:42:17;24.00;60.90
22469;DHT22;11401;50.792;4.352;2022-09-09T14:44:44;24.00;60.70
22469;DHT22;11401;50.792;4.352;2022-09-09T14:47:11;24.00;60.10
22469;DHT22;11401;50.792;4.352;2022-09-09T14:49:38;23.90;60.50
22469;DHT22;11401;50.792;4.352;2022-09-09T14:52:09;23.90;60.30
22469;DHT22;11401;50.792;4.352;2022-09-09T14:54:36;24.00;59.70
22469;DHT22;11401;50.792;4.352;2022-09-09T14:57:03;24.00;59.70
22469;DHT22;11401;50.792;4.352;2022-09-09T14:59:30;24.00;59.80
22469;DHT22;11401;50.792;4.352;2022-09-09T15:01:57;24.00;59.60
22469;DHT22;11401;50.792;4.352;2022-09-09T15:04:24;24.00;59.70
22469;DHT22;11401;50.792;4.352;2022-09-09T15:06:51;24.00;59.90
22469;DHT22;11401;50.792;4.352;2022-09-09T15:09:19;24.00;60.10
22469;DHT22;11401;50.792;4.352;2022-09-09T15:11:46;24.00;60.10
22469;DHT22;11401;50.792;4.352;2022-09-09T15:14:14;24.00;59.80
22469;DHT22;11401;50.792;4.352;2022-09-09T15:16:40;24.00;59.60
22469;DHT22;11401;50.792;4.352;2022-09-09T15:19:08;24.00;59.10
22469;DHT22;11401;50.792;4.352;2022-09-09T15:21:36;24.00;59.80
22469;DHT22;11401;50.792;4.352;2022-09-09T15:24:04;24.00;60.30
22469;DHT22;11401;50.792;4.352;2022-09-09T15:26:31;24.10;60.60
22469;DHT22;11401;50.792;4.352;2022-09-09T15:28:58;24.10;59.50
22469;DHT22;11401;50.792;4.352;2022-09-09T15:31:30;24.10;58.90
22469;DHT22;11401;50.792;4.352;2022-09-09T15:34:00;24.10;59.00
22469;DHT22;11401;50.792;4.352;2022-09-09T15:36:39;24.00;59.20
22469;DHT22;11401;50.792;4.352;2022-09-09T15:39:08;24.00;59.20
22469;DHT22;11401;50.792;4.352;2022-09-09T15:41:39;24.00;59.40
22469;DHT22;11401;50.792;4.352;2022-09-09T15:44:07;24.00;59.10
22469;DHT22;11401;50.792;4.352;2022-09-09T15:46:39;24.00;59.30
22469;DHT22;11401;50.792;4.352;2022-09-09T15:51:39;24.10;59.20
22469;DHT22;11401;50.792;4.352;2022-09-09T15:54:14;24.10;59.50
22469;DHT22;11401;50.792;4.352;2022-09-09T15:56:44;24.10;59.40
22469;DHT22;11401;50.792;4.352;2022-09-09T15:59:12;24.10;59.50
22469;DHT22;11401;50.792;4.352;2022-09-09T16:01:39;24.10;59.40
22469;DHT22;11401;50.792;4.352;2022-09-09T16:04:06;24.10;59.40
22469;DHT22;11401;50.792;4.352;2022-09-09T16:06:33;24.10;59.50
22469;DHT22;11401;50.792;4.352;2022-09-09T16:09:04;24.20;59.40
22469;DHT22;11401;50.792;4.352;2022-09-09T16:11:34;24.10;59.30
22469;DHT22;11401;50.792;4.352;2022-09-09T16:14:03;24.20;59.40
22469;DHT22;11401;50.792;4.352;2022-09-09T16:16:32;24.20;59.50
22469;DHT22;11401;50.792;4.352;2022-09-09T16:19:10;24.20;59.50
22469;DHT22;11401;50.792;4.352;2022-09-09T16:21:42;24.20;59.40
22469;DHT22;11401;50.792;4.352;2022-09-09T16:24:12;24.10;59.60
22469;DHT22;11401;50.792;4.352;2022-09-09T16:26:42;24.10;59.90
22469;DHT22;11401;50.792;4.352;2022-09-09T16:29:15;24.00;59.60
22469;DHT22;11401;50.792;4.352;2022-09-09T16:31:44;24.00;59.80
22469;DHT22;11401;50.792;4.352;2022-09-09T16:34:12;23.90;59.80
22469;DHT22;11401;50.792;4.352;2022-09-09T16:36:40;23.90;59.70
22469;DHT22;11401;50.792;4.352;2022-09-09T16:39:10;23.90;59.70
22469;DHT22;11401;50.792;4.352;2022-09-09T16:41:38;23.80;59.90
22469;DHT22;11401;50.792;4.352;2022-09-09T16:44:07;23.70;60.10
22469;DHT22;11401;50.792;4.352;2022-09-09T16:46:40;23.70;60.20
22469;DHT22;11401;50.792;4.352;2022-09-09T16:49:12;23.70;60.60
22469;DHT22;11401;50.792;4.352;2022-09-09T16:51:42;23.70;60.50
22469;DHT22;11401;50.792;4.352;2022-09-09T16:54:10;23.60;60.40
22469;DHT22;11401;50.792;4.352;2022-09-09T16:56:40;23.60;60.50
22469;DHT22;11401;50.792;4.352;2022-09-09T16:59:15;23.50;60.70
22469;DHT22;11401;50.792;4.352;2022-09-09T17:01:43;23.50;60.90
22469;DHT22;11401;50.792;4.352;2022-09-09T17:04:13;23.50;61.10
22469;DHT22;11401;50.792;4.352;2022-09-09T17:06:46;23.40;61.90
22469;DHT22;11401;50.792;4.352;2022-09-09T17:09:14;23.40;61.40
22469;DHT22;11401;50.792;4.352;2022-09-09T17:11:41;23.40;61.90
22469;DHT22;11401;50.792;4.352;2022-09-09T17:14:11;23.40;61.90
22469;DHT22;11401;50.792;4.352;2022-09-09T17:16:39;23.40;62.10
22469;DHT22;11401;50.792;4.352;2022-09-09T17:19:06;23.40;62.20
22469;DHT22;11401;50.792;4.352;2022-09-09T17:21:36;23.40;62.20
22469;DHT22;11401;50.792;4.352;2022-09-09T17:24:23;23.40;62.10
22469;DHT22;11401;50.792;4.352;2022-09-09T17:26:52;23.30;61.90
22469;DHT22;11401;50.792;4.352;2022-09-09T17:29:19;23.30;61.80
22469;DHT22;11401;50.792;4.352;2022-09-09T17:31:46;23.30;61.90
22469;DHT22;11401;50.792;4.352;2022-09-09T17:34:13;23.30;61.60
22469;DHT22;11401;50.792;4.352;2022-09-09T17:36:40;23.30;61.70
22469;DHT22;11401;50.792;4.352;2022-09-09T17:39:08;23.30;61.80
22469;DHT22;11401;50.792;4.352;2022-09-09T17:41:37;23.30;62.00
22469;DHT22;11401;50.792;4.352;2022-09-09T17:44:06;23.30;62.00
22469;DHT22;11401;50.792;4.352;2022-09-09T17:46:40;23.30;62.10
22469;DHT22;11401;50.792;4.352;2022-09-09T17:49:10;23.20;62.00
22469;DHT22;11401;50.792;4.352;2022-09-09T17:51:39;23.20;62.30
22469;DHT22;11401;50.792;4.352;2022-09-09T17:54:19;23.20;62.20
22469;DHT22;11401;50.792;4.352;2022-09-09T17:56:47;23.20;61.90
22469;DHT22;11401;50.792;4.352;2022-09-09T17:59:15;23.20;61.60
22469;DHT22;11401;50.792;4.352;2022-09-09T18:01:45;23.20;61.20
22469;DHT22;11401;50.792;4.352;2022-09-09T18:04:15;23.10;61.60
22469;DHT22;11401;50.792;4.352;2022-09-09T18:06:49;23.20;61.40
22469;DHT22;11401;50.792;4.352;2022-09-09T18:09:18;23.10;62.00
22469;DHT22;11401;50.792;4.352;2022-09-09T18:11:49;23.10;61.30